Time;durP1;ratioP1;P1;durP2;ratioP2;P2;SDS_P1;SDS_P2;PMS_P1;PMS_P2;Temp;Humidity;BMP_temperature;BMP_pressure;BME280_temperature;BME280_humidity;BME280_pressure;Samples;Min_cycle;Max_cycle;Signal;HPM_P1;HPM_P2
2021/06/09 00:01:35;;;;;;;12.98;10.88;;;;;;;;;;6203505;28;20543;-75
2021/06/09 00:04:36;;;;;;;15.05;11.30;;;;;;;;;;6203639;28;20129;-76
2021/06/09 00:07:37;;;;;;;14.90;10.13;;;;;;;;;;6201353;28;20073;-76
2021/06/09 00:10:38;;;;;;;10.88;9.68;;;;;;;;;;6200992;28;20077;-76
2021/06/09 00:13:41;;;;;;;12.63;10.27;;;;;;;;;;6203316;28;20125;-75
2021/06/09 00:16:42;;;;;;;17.08;11.43;;;;;;;;;;6216446;28;20069;-75
2021/06/09 00:19:44;;;;;;;14.60;10.73;;;;;;;;;;6227148;28;20477;-75
2021/06/09 00:22:45;;;;;;;15.65;10.20;;;;;;;;;;6226843;28;20073;-74
2021/06/09 00:25:48;;;;;;;12.70;11.35;;;;;;;;;;6226530;28;20068;-75
2021/06/09 00:28:50;;;;;;;18.77;13.32;;;;;;;;;;6226894;28;20082;-75
2021/06/09 00:31:52;;;;;;;18.97;13.50;;;;;;;;;;6225798;28;20124;-75
2021/06/09 00:34:53;;;;;;;14.65;11.68;;;;;;;;;;6226015;28;20065;-76
2021/06/09 00:37:54;;;;;;;16.33;11.50;;;;;;;;;;6226238;28;20042;-75
2021/06/09 00:40:55;;;;;;;14.73;11.30;;;;;;;;;;6226177;28;20473;-75
2021/06/09 00:43:58;;;;;;;14.35;11.23;;;;;;;;;;6201343;28;20038;-75
2021/06/09 00:46:59;;;;;;;15.32;12.57;;;;;;;;;;6201215;28;20369;-75
2021/06/09 00:50:00;;;;;;;17.45;12.50;;;;;;;;;;6202038;28;20153;-76
2021/06/09 00:56:20;;;;;;;16.10;11.75;;;;;;;;;;6217187;28;20038;-76
2021/06/09 00:59:22;;;;;;;;;;;;;;;;;;6226397;28;20121;-76
2021/06/09 01:02:23;;;;;;;16.73;12.73;;;;;;;;;;6226231;28;20011;-74
2021/06/09 01:05:24;;;;;;;16.77;12.73;;;;;;;;;;6223658;28;20611;-76
2021/06/09 01:08:26;;;;;;;15.95;12.20;;;;;;;;;;6237075;23;20025;-68
2021/06/09 01:11:28;;;;;;;15.77;12.25;;;;;;;;;;6223436;28;20401;-67
2021/06/09 01:14:31;;;;;;;16.15;12.25;;;;;;;;;;6223841;28;20074;-68
2021/06/09 01:17:32;;;;;;;15.50;12.15;;;;;;;;;;6222944;28;20046;-67
2021/06/09 01:20:33;;;;;;;13.25;11.40;;;;;;;;;;6224262;28;20103;-67
2021/06/09 01:23:37;;;;;;;16.23;12.73;;;;;;;;;;6222757;28;20351;-69
2021/06/09 01:26:39;;;;;;;13.93;12.02;;;;;;;;;;6224430;28;20136;-68
2021/06/09 01:29:40;;;;;;;17.20;12.90;;;;;;;;;;6222723;28;20049;-69
2021/06/09 01:32:42;;;;;;;16.27;12.65;;;;;;;;;;6223391;28;20489;-68
2021/06/09 01:35:43;;;;;;;16.08;12.25;;;;;;;;;;6223611;28;20176;-68
2021/06/09 01:38:46;;;;;;;15.00;12.75;;;;;;;;;;6223573;28;20053;-68
2021/06/09 01:41:48;;;;;;;14.80;11.68;;;;;;;;;;6223166;28;20099;-68
2021/06/09 01:44:49;;;;;;;21.20;13.33;;;;;;;;;;6223454;28;20073;-68
2021/06/09 01:47:52;;;;;;;17.95;13.82;;;;;;;;;;6223376;28;20453;-68
2021/06/09 01:50:53;;;;;;;16.10;14.32;;;;;;;;;;6224277;28;20070;-67
2021/06/09 01:53:55;;;;;;;16.40;13.70;;;;;;;;;;6223660;28;20669;-68
2021/06/09 01:56:57;;;;;;;19.20;15.55;;;;;;;;;;6224566;28;20050;-67
2021/06/09 01:59:58;;;;;;;18.48;15.38;;;;;;;;;;6212557;28;20168;-68
2021/06/09 02:03:00;;;;;;;18.20;15.35;;;;;;;;;;6223200;28;20052;-68
2021/06/09 02:06:01;;;;;;;20.27;14.63;;;;;;;;;;6223562;28;20053;-67
2021/06/09 02:09:04;;;;;;;23.83;17.42;;;;;;;;;;6222968;28;20077;-68
2021/06/09 02:12:07;;;;;;;18.67;15.73;;;;;;;;;;6224082;28;20078;-67
2021/06/09 02:15:10;;;;;;;20.95;17.80;;;;;;;;;;6223208;28;20050;-67
2021/06/09 02:18:13;;;;;;;22.10;17.30;;;;;;;;;;6221884;28;20046;-67
2021/06/09 02:21:14;;;;;;;21.33;17.77;;;;;;;;;;6223451;28;20050;-67
2021/06/09 02:24:17;;;;;;;23.60;17.85;;;;;;;;;;6224544;28;20074;-67
2021/06/09 02:27:18;;;;;;;22.00;18.92;;;;;;;;;;6224422;28;23530;-67
2021/06/09 02:30:20;;;;;;;23.13;19.02;;;;;;;;;;6224079;28;20042;-67
2021/06/09 02:33:23;;;;;;;24.58;19.02;;;;;;;;;;6223617;28;20057;-67
2021/06/09 02:36:25;;;;;;;23.10;19.20;;;;;;;;;;6224174;28;20160;-67
2021/06/09 02:39:27;;;;;;;23.15;19.30;;;;;;;;;;6224045;28;20531;-67
2021/06/09 02:42:28;;;;;;;22.60;19.98;;;;;;;;;;6223967;28;20108;-67
2021/06/09 02:45:30;;;;;;;25.67;20.00;;;;;;;;;;6223853;28;20038;-67
2021/06/09 02:48:32;;;;;;;23.90;20.08;;;;;;;;;;6224074;28;20172;-67
2021/06/09 02:51:37;;;;;;;25.23;20.38;;;;;;;;;;6220769;28;20074;-68
2021/06/09 02:54:44;;;;;;;28.27;18.98;;;;;;;;;;6223781;28;20054;-67
2021/06/09 02:57:59;;;;;;;24.80;19.38;;;;;;;;;;6221134;28;20133;-67
2021/06/09 03:01:12;;;;;;;23.70;20.10;;;;;;;;;;6223630;28;20132;-68
2021/06/09 03:04:18;;;;;;;23.08;19.80;;;;;;;;;;6224621;28;20046;-67
2021/06/09 03:07:24;;;;;;;25.05;20.00;;;;;;;;;;6223296;28;21184;-67
2021/06/09 03:10:37;;;;;;;24.13;20.40;;;;;;;;;;6225595;28;20176;-67
2021/06/09 03:13:53;;;;;;;26.08;20.80;;;;;;;;;;6227998;28;20548;-67
2021/06/09 03:16:56;;;;;;;32.90;21.30;;;;;;;;;;6206675;28;20042;-67
2021/06/09 03:20:03;;;;;;;28.17;22.08;;;;;;;;;;6202296;28;20137;-67
2021/06/09 03:23:10;;;;;;;23.55;20.52;;;;;;;;;;6211659;28;20061;-67
2021/06/09 03:26:18;;;;;;;25.92;18.80;;;;;;;;;;6217487;28;20070;-67
2021/06/09 03:29:26;;;;;;;20.83;17.92;;;;;;;;;;6216727;28;20041;-68
2021/06/09 03:32:30;;;;;;;21.52;18.23;;;;;;;;;;6218156;28;20505;-68
2021/06/09 03:35:36;;;;;;;23.05;18.05;;;;;;;;;;6205848;28;20093;-68
2021/06/09 03:38:43;;;;;;;23.60;18.55;;;;;;;;;;6210011;28;20165;-68
2021/06/09 03:41:48;;;;;;;23.98;20.08;;;;;;;;;;6214451;28;20073;-68
2021/06/09 03:44:51;;;;;;;20.85;18.48;;;;;;;;;;6228794;28;20077;-68
2021/06/09 03:47:52;;;;;;;25.88;19.48;;;;;;;;;;6229637;28;20573;-68
2021/06/09 03:50:54;;;;;;;26.52;20.35;;;;;;;;;;6226898;28;20060;-68
2021/06/09 03:53:57;;;;;;;25.67;20.88;;;;;;;;;;6226129;28;20049;-68
2021/06/09 03:57:00;;;;;;;26.33;18.75;;;;;;;;;;6226948;28;20080;-68
2021/06/09 04:00:03;;;;;;;26.00;20.05;;;;;;;;;;6226709;28;20093;-68
2021/06/09 04:03:05;;;;;;;26.73;20.60;;;;;;;;;;6226697;28;20569;-68
2021/06/09 04:06:07;;;;;;;27.23;20.00;;;;;;;;;;6213279;28;20084;-68
2021/06/09 04:09:10;;;;;;;24.50;20.35;;;;;;;;;;6202342;28;20137;-68
2021/06/09 04:12:13;;;;;;;25.80;20.38;;;;;;;;;;6202130;28;20042;-68
2021/06/09 04:15:17;;;;;;;26.30;21.15;;;;;;;;;;6202023;28;20070;-68
2021/06/09 04:18:18;;;;;;;25.42;20.75;;;;;;;;;;6201688;28;20546;-68
2021/06/09 04:21:19;;;;;;;25.45;20.55;;;;;;;;;;6201322;28;20129;-69
2021/06/09 04:24:20;;;;;;;24.08;20.25;;;;;;;;;;6201923;28;20393;-68
2021/06/09 04:27:26;;;;;;;22.35;19.65;;;;;;;;;;6200473;28;20141;-69
2021/06/09 04:30:29;;;;;;;24.05;20.52;;;;;;;;;;6201882;28;20101;-68
2021/06/09 04:33:31;;;;;;;;;;;;;;;;;;6201342;28;20532;-67
2021/06/09 04:36:32;;;;;;;24.85;21.55;;;;;;;;;;6201466;28;20008;-68
2021/06/09 04:39:37;;;;;;;25.95;20.95;;;;;;;;;;6201268;28;20046;-68
2021/06/09 04:42:39;;;;;;;31.02;21.00;;;;;;;;;;6201834;28;20124;-68
2021/06/09 04:45:40;;;;;;;26.30;20.65;;;;;;;;;;6201555;28;20070;-68
2021/06/09 04:48:41;;;;;;;26.35;21.35;;;;;;;;;;6200941;28;20557;-68
2021/06/09 04:51:42;;;;;;;23.70;20.38;;;;;;;;;;6201176;28;20062;-68
2021/06/09 04:54:45;;;;;;;27.80;20.92;;;;;;;;;;6200810;28;20077;-68
2021/06/09 04:57:48;;;;;;;23.48;20.95;;;;;;;;;;6201078;28;20119;-68
2021/06/09 05:00:50;;;;;;;27.67;21.50;;;;;;;;;;6200947;28;20557;-68
2021/06/09 05:03:51;;;;;;;24.05;20.55;;;;;;;;;;6199237;28;20054;-68
2021/06/09 05:06:52;;;;;;;24.83;20.45;;;;;;;;;;6201118;28;20133;-68
2021/06/09 05:09:53;;;;;;;25.02;19.67;;;;;;;;;;6201095;28;20049;-68
2021/06/09 05:12:58;;;;;;;24.63;19.52;;;;;;;;;;6201027;28;20506;-67
2021/06/09 05:16:02;;;;;;;22.67;19.30;;;;;;;;;;6200953;28;20129;-68
2021/06/09 05:19:04;;;;;;;22.35;18.70;;;;;;;;;;6198748;28;20066;-68
2021/06/09 05:22:08;;;;;;;23.23;18.75;;;;;;;;;;6200420;28;20525;-68
2021/06/09 05:25:10;;;;;;;22.88;18.35;;;;;;;;;;6201115;28;20050;-68
2021/06/09 05:28:13;;;;;;;24.83;20.02;;;;;;;;;;6200897;28;20230;-68
2021/06/09 05:31:14;;;;;;;25.38;19.67;;;;;;;;;;6200669;28;20129;-68
2021/06/09 05:34:19;;;;;;;26.67;20.45;;;;;;;;;;6199385;28;20070;-68
2021/06/09 05:37:20;;;;;;;26.67;20.77;;;;;;;;;;6200134;28;20454;-68
2021/06/09 05:40:22;;;;;;;30.60;21.42;;;;;;;;;;6200544;28;20130;-68
2021/06/09 05:43:26;;;;;;;24.63;21.38;;;;;;;;;;6199728;28;20450;-69
2021/06/09 05:46:28;;;;;;;25.25;21.23;;;;;;;;;;6200081;28;20085;-68
2021/06/09 05:49:29;;;;;;;24.35;20.80;;;;;;;;;;6195239;28;20090;-68
2021/06/09 05:52:30;;;;;;;28.27;20.25;;;;;;;;;;6199941;28;20066;-68
2021/06/09 05:55:33;;;;;;;22.10;19.80;;;;;;;;;;6211005;28;20081;-68
2021/06/09 05:58:38;;;;;;;22.13;19.73;;;;;;;;;;6223991;28;20060;-68
2021/06/09 06:01:39;;;;;;;22.45;19.35;;;;;;;;;;6223416;28;20137;-68
2021/06/09 06:04:40;;;;;;;23.35;18.48;;;;;;;;;;6220984;28;20108;-68
2021/06/09 06:07:41;;;;;;;20.75;18.52;;;;;;;;;;6203965;28;20077;-69
2021/06/09 06:10:43;;;;;;;29.60;19.30;;;;;;;;;;6223342;28;20445;-67
2021/06/09 06:13:47;;;;;;;22.67;18.48;;;;;;;;;;6223248;28;20124;-67
2021/06/09 06:16:52;;;;;;;21.52;18.23;;;;;;;;;;6216209;28;20620;-67
2021/06/09 06:19:53;;;;;;;21.73;18.73;;;;;;;;;;6203378;28;20041;-66
2021/06/09 06:22:55;;;;;;;20.88;18.77;;;;;;;;;;6220590;28;20149;-65
2021/06/09 06:25:57;;;;;;;20.95;18.52;;;;;;;;;;6220300;28;20126;-65
2021/06/09 06:29:00;;;;;;;21.95;18.25;;;;;;;;;;6221394;28;20085;-67
2021/06/09 06:32:02;;;;;;;19.90;17.50;;;;;;;;;;6208840;28;20054;-67
2021/06/09 06:35:03;;;;;;;21.45;17.10;;;;;;;;;;6203379;28;20050;-68
2021/06/09 06:38:04;;;;;;;22.30;17.90;;;;;;;;;;6201570;28;20070;-68
2021/06/09 06:41:06;;;;;;;20.15;17.58;;;;;;;;;;6214419;28;20481;-67
2021/06/09 06:44:09;;;;;;;22.58;16.80;;;;;;;;;;6223524;28;20089;-68
2021/06/09 06:47:11;;;;;;;22.58;17.42;;;;;;;;;;6227214;28;20093;-68
2021/06/09 06:50:13;;;;;;;22.77;16.38;;;;;;;;;;6229054;28;20037;-68
2021/06/09 06:53:14;;;;;;;17.50;15.45;;;;;;;;;;6226538;28;20502;-67
2021/06/09 06:56:16;;;;;;;18.02;16.08;;;;;;;;;;6214604;28;20077;-67
2021/06/09 06:59:20;;;;;;;21.95;16.25;;;;;;;;;;6220980;28;20066;-68
2021/06/09 07:02:22;;;;;;;17.92;15.00;;;;;;;;;;6220083;28;20462;-69
2021/06/09 07:05:25;;;;;;;20.20;15.23;;;;;;;;;;6221515;28;20073;-68
2021/06/09 07:08:26;;;;;;;18.42;15.48;;;;;;;;;;6227350;28;20208;-68
2021/06/09 07:11:27;;;;;;;21.25;15.05;;;;;;;;;;6228676;28;20077;-68
2021/06/09 07:14:30;;;;;;;17.83;14.80;;;;;;;;;;6228755;28;20489;-67
2021/06/09 07:17:34;;;;;;;18.45;14.15;;;;;;;;;;6228111;28;20060;-68
2021/06/09 07:20:35;;;;;;;19.77;14.18;;;;;;;;;;6226921;28;20066;-67
2021/06/09 07:23:36;;;;;;;18.15;14.02;;;;;;;;;;6227714;28;20093;-67
2021/06/09 07:26:41;;;;;;;15.27;13.20;;;;;;;;;;6227315;28;20074;-67
2021/06/09 07:29:45;;;;;;;15.85;12.40;;;;;;;;;;6226749;28;20053;-68
2021/06/09 07:32:47;;;;;;;13.20;11.80;;;;;;;;;;6216827;28;20421;-67
2021/06/09 07:35:48;;;;;;;14.02;12.52;;;;;;;;;;6226759;28;20643;-68
2021/06/09 07:38:55;;;;;;;14.30;11.68;;;;;;;;;;6226012;28;20095;-67
2021/06/09 07:41:56;;;;;;;13.27;11.07;;;;;;;;;;6232019;28;20140;-68
2021/06/09 07:45:08;;;;;;;17.30;11.82;;;;;;;;;;6226851;28;20410;-68
2021/06/09 07:48:09;;;;;;;14.13;10.80;;;;;;;;;;6225740;28;20535;-68
2021/06/09 07:51:12;;;;;;;14.68;11.68;;;;;;;;;;6227490;28;20049;-68
2021/06/09 07:54:14;;;;;;;11.85;10.70;;;;;;;;;;6220790;28;20041;-68
2021/06/09 07:57:15;;;;;;;12.00;10.55;;;;;;;;;;6237511;28;20078;-68
2021/06/09 08:00:18;;;;;;;14.20;10.80;;;;;;;;;;6226142;28;20058;-68
2021/06/09 08:03:20;;;;;;;11.18;10.13;;;;;;;;;;6224772;28;20050;-68
2021/06/09 08:06:22;;;;;;;12.32;9.35;;;;;;;;;;6226656;28;20169;-68
2021/06/09 08:09:25;;;;;;;10.27;9.23;;;;;;;;;;6226727;28;20061;-68
2021/06/09 08:12:26;;;;;;;8.80;7.90;;;;;;;;;;6225884;28;20057;-66
2021/06/09 08:15:31;;;;;;;9.10;8.30;;;;;;;;;;6223378;28;20505;-66
2021/06/09 08:18:32;;;;;;;10.00;8.95;;;;;;;;;;6226443;28;20049;-67
2021/06/09 08:21:34;;;;;;;11.50;8.98;;;;;;;;;;6226547;28;20430;-67
2021/06/09 08:24:35;;;;;;;9.00;8.10;;;;;;;;;;6226283;28;20042;-68
2021/06/09 08:27:36;;;;;;;11.10;8.32;;;;;;;;;;6226149;28;20177;-67
2021/06/09 08:30:39;;;;;;;8.35;7.55;;;;;;;;;;6225628;28;20405;-66
2021/06/09 08:33:42;;;;;;;7.90;6.75;;;;;;;;;;6200566;28;20050;-66
2021/06/09 08:36:44;;;;;;;;;;;;;;;;;;6201449;28;20417;-66
2021/06/09 08:39:45;;;;;;;9.75;8.50;;;;;;;;;;6200891;28;19921;-67
2021/06/09 08:42:47;;;;;;;12.48;7.75;;;;;;;;;;6200971;28;20193;-67
2021/06/09 08:45:49;;;;;;;7.93;6.88;;;;;;;;;;6200612;28;20539;-67
2021/06/09 08:48:50;;;;;;;;;;;;;;;;;;6201906;28;20046;-66
2021/06/09 08:51:54;;;;;;;7.60;6.60;;;;;;;;;;6201041;28;19929;-66
2021/06/09 08:54:55;;;;;;;7.90;7.10;;;;;;;;;;6202314;28;20042;-66
2021/06/09 08:57:56;;;;;;;8.43;7.72;;;;;;;;;;6201530;28;20053;-66
2021/06/09 09:00:59;;;;;;;10.38;8.63;;;;;;;;;;6201109;28;20085;-66
2021/06/09 09:04:01;;;;;;;9.10;8.15;;;;;;;;;;6200533;28;20058;-66
2021/06/09 09:07:03;;;;;;;9.10;8.32;;;;;;;;;;6200945;28;20058;-66
2021/06/09 09:10:07;;;;;;;9.43;7.60;;;;;;;;;;6199959;28;20089;-66
2021/06/09 09:13:09;;;;;;;8.20;7.40;;;;;;;;;;6201241;28;20046;-67
2021/06/09 09:16:11;;;;;;;8.52;7.03;;;;;;;;;;6200965;28;20050;-67
2021/06/09 09:19:28;;;;;;;12.38;8.98;;;;;;;;;;6200665;28;20124;-66
2021/06/09 09:22:33;;;;;;;9.10;7.78;;;;;;;;;;6200376;28;20057;-67
2021/06/09 09:25:34;;;;;;;9.15;7.95;;;;;;;;;;6204167;28;20137;-67
2021/06/09 09:28:35;;;;;;;10.60;7.15;;;;;;;;;;6201536;28;20181;-67
2021/06/09 09:31:59;;;;;;;8.13;7.35;;;;;;;;;;6200314;28;20050;-67
2021/06/09 09:35:09;;;;;;;8.77;7.88;;;;;;;;;;6193659;28;20062;-67
2021/06/09 09:38:22;;;;;;;9.02;8.18;;;;;;;;;;6197409;28;20125;-68
2021/06/09 09:41:29;;;;;;;12.00;8.10;;;;;;;;;;6202600;28;20136;-67
2021/06/09 09:44:33;;;;;;;7.70;6.90;;;;;;;;;;6208066;28;20517;-66
2021/06/09 09:47:35;;;;;;;8.77;6.93;;;;;;;;;;6220079;28;20119;-66
2021/06/09 09:50:39;;;;;;;8.00;6.22;;;;;;;;;;6210528;28;20385;-66
2021/06/09 09:53:41;;;;;;;13.05;6.40;;;;;;;;;;6222163;28;20046;-67
2021/06/09 09:56:42;;;;;;;10.82;8.05;;;;;;;;;;6202194;28;20397;-66
2021/06/09 09:59:55;;;;;;;10.30;7.05;;;;;;;;;;6224544;28;20076;-67
2021/06/09 10:06:38;;;;;;;13.18;6.30;;;;;;;;;;6300803;27;20132;-67
2021/06/09 10:09:42;;;;;;;7.55;5.47;;;;;;;;;;6220963;28;20134;-66
2021/06/09 10:13:15;;;;;;;8.38;7.55;;;;;;;;;;6220498;28;20489;-67
2021/06/09 10:16:24;;;;;;;14.32;8.75;;;;;;;;;;6217383;28;20515;-67
2021/06/09 10:19:29;;;;;;;9.25;7.50;;;;;;;;;;6220573;28;20076;-66
2021/06/09 10:22:34;;;;;;;8.70;7.90;;;;;;;;;;6217014;28;20125;-66
2021/06/09 10:25:35;;;;;;;9.13;6.72;;;;;;;;;;6210363;28;20069;-66
2021/06/09 10:29:05;;;;;;;8.68;7.80;;;;;;;;;;6177122;28;20128;-66
2021/06/09 10:32:08;;;;;;;7.70;6.55;;;;;;;;;;6200770;28;20389;-67
2021/06/09 10:35:11;;;;;;;6.20;5.70;;;;;;;;;;6203138;28;20039;-67
2021/06/09 10:38:14;;;;;;;7.38;5.97;;;;;;;;;;6192512;28;20038;-67
2021/06/09 10:41:15;;;;;;;8.68;7.85;;;;;;;;;;6205030;28;20252;-67
2021/06/09 10:44:19;;;;;;;8.60;7.07;;;;;;;;;;6216618;28;20081;-66
2021/06/09 10:47:24;;;;;;;8.60;7.80;;;;;;;;;;6244871;28;20490;-66
2021/06/09 10:50:26;;;;;;;6.70;5.20;;;;;;;;;;6217137;28;20080;-67
2021/06/09 10:53:28;;;;;;;;;;;;;;;;;;6215426;28;20414;-67
2021/06/09 10:56:29;;;;;;;7.13;4.85;;;;;;;;;;6219514;28;19928;-67
2021/06/09 10:59:32;;;;;;;11.70;6.45;;;;;;;;;;6218584;28;20492;-65
2021/06/09 11:02:33;;;;;;;7.00;6.30;;;;;;;;;;6219159;28;20061;-67
2021/06/09 11:05:35;;;;;;;6.70;5.90;;;;;;;;;;6216383;28;20373;-65
2021/06/09 11:08:38;;;;;;;6.22;5.63;;;;;;;;;;6217995;28;20073;-65
2021/06/09 11:11:39;;;;;;;6.28;4.70;;;;;;;;;;6219185;28;20046;-66
2021/06/09 11:14:45;;;;;;;11.82;5.43;;;;;;;;;;6218411;28;20445;-66
2021/06/09 11:17:48;;;;;;;9.68;5.68;;;;;;;;;;6201706;28;20402;-66
2021/06/09 11:20:50;;;;;;;5.63;4.38;;;;;;;;;;6202024;28;20066;-68
2021/06/09 11:23:53;;;;;;;5.63;4.57;;;;;;;;;;6202257;28;20047;-65
2021/06/09 11:26:54;;;;;;;5.28;4.45;;;;;;;;;;6184454;28;20125;-65
2021/06/09 11:29:55;;;;;;;5.43;4.90;;;;;;;;;;6201111;28;20092;-67
2021/06/09 11:32:58;;;;;;;4.50;4.10;;;;;;;;;;6201813;28;20522;-67
2021/06/09 11:36:00;;;;;;;4.80;4.40;;;;;;;;;;6197916;28;20050;-65
2021/06/09 11:39:06;;;;;;;;;;;;;;;;;;6201729;28;20502;-65
2021/06/09 11:42:09;;;;;;;5.28;4.78;;;;;;;;;;6187771;28;19922;-66
2021/06/09 11:45:23;;;;;;;5.18;4.78;;;;;;;;;;6177100;28;20479;-65
2021/06/09 11:48:25;;;;;;;6.53;4.15;;;;;;;;;;6176572;28;20178;-65
2021/06/09 11:51:30;;;;;;;4.35;3.95;;;;;;;;;;6176981;28;20101;-65
2021/06/09 11:54:33;;;;;;;4.25;3.85;;;;;;;;;;6177025;28;20105;-66
2021/06/09 11:57:34;;;;;;;4.40;4.00;;;;;;;;;;6177091;28;20439;-65
2021/06/09 12:01:03;;;;;;;4.57;4.18;;;;;;;;;;6176592;28;20065;-65
2021/06/09 12:04:20;;;;;;;5.80;4.35;;;;;;;;;;6176564;28;20082;-67
2021/06/09 12:07:24;;;;;;;6.47;4.40;;;;;;;;;;6187574;28;20171;-65
2021/06/09 12:10:26;;;;;;;14.90;4.22;;;;;;;;;;6184581;28;20379;-69
2021/06/09 12:13:28;;;;;;;4.10;3.80;;;;;;;;;;6189185;28;20084;-71
2021/06/09 12:16:29;;;;;;;4.35;3.95;;;;;;;;;;6184981;28;20077;-66
2021/06/09 12:19:35;;;;;;;4.30;3.58;;;;;;;;;;6185166;28;20074;-66
2021/06/09 12:22:41;;;;;;;3.67;3.35;;;;;;;;;;6200686;28;20050;-66
2021/06/09 12:25:44;;;;;;;6.88;3.65;;;;;;;;;;6202133;28;20529;-68
2021/06/09 12:28:45;;;;;;;4.10;3.70;;;;;;;;;;6199907;28;20146;-66
2021/06/09 12:31:46;;;;;;;4.53;3.73;;;;;;;;;;6201183;28;20055;-64
2021/06/09 12:34:53;;;;;;;5.72;4.35;;;;;;;;;;6201095;28;20058;-69
2021/06/09 12:37:58;;;;;;;3.75;3.40;;;;;;;;;;6177789;28;20067;-67
2021/06/09 12:41:01;;;;;;;3.72;3.42;;;;;;;;;;6177119;28;20051;-70
2021/06/09 12:44:11;;;;;;;4.82;3.47;;;;;;;;;;6176435;28;20047;-69
2021/06/09 12:47:12;;;;;;;3.70;3.00;;;;;;;;;;6187684;28;20054;-68
2021/06/09 12:50:19;;;;;;;5.67;3.33;;;;;;;;;;6200857;28;20133;-68
2021/06/09 12:53:23;;;;;;;4.55;3.50;;;;;;;;;;6191353;28;20105;-68
2021/06/09 12:56:26;;;;;;;5.38;3.55;;;;;;;;;;6194177;28;20051;-68
2021/06/09 12:59:34;;;;;;;3.53;2.80;;;;;;;;;;6195785;28;20120;-68
2021/06/09 13:02:35;;;;;;;4.78;3.20;;;;;;;;;;6200536;28;20050;-68
2021/06/09 13:05:38;;;;;;;5.90;3.73;;;;;;;;;;6201185;28;20074;-68
2021/06/09 13:08:41;;;;;;;9.48;4.10;;;;;;;;;;6200822;28;20433;-69
2021/06/09 13:11:45;;;;;;;6.00;3.97;;;;;;;;;;6198195;28;20085;-69
2021/06/09 13:14:48;;;;;;;5.13;3.67;;;;;;;;;;6200608;28;20057;-69
2021/06/09 13:17:50;;;;;;;4.72;3.08;;;;;;;;;;6196913;28;20134;-72
2021/06/09 13:20:51;;;;;;;2.97;2.78;;;;;;;;;;6197700;28;20074;-70
2021/06/09 13:23:56;;;;;;;3.45;2.70;;;;;;;;;;6198497;28;20429;-70
2021/06/09 13:27:05;;;;;;;4.50;2.90;;;;;;;;;;6197815;28;20065;-70
2021/06/09 13:30:09;;;;;;;4.85;2.80;;;;;;;;;;6187114;28;20146;-70
2021/06/09 13:33:10;;;;;;;8.18;3.10;;;;;;;;;;6195777;28;20044;-69
2021/06/09 13:36:17;;;;;;;6.45;3.38;;;;;;;;;;6175189;28;20061;-70
2021/06/09 13:39:18;;;;;;;5.88;3.30;;;;;;;;;;6186853;28;20061;-70
2021/06/09 13:42:29;;;;;;;9.07;2.92;;;;;;;;;;6199154;28;20085;-69
2021/06/09 13:45:33;;;;;;;5.00;2.70;;;;;;;;;;6201207;28;20046;-69
2021/06/09 13:48:47;;;;;;;4.13;2.47;;;;;;;;;;6197223;28;20046;-70
2021/06/09 13:51:49;;;;;;;3.15;2.53;;;;;;;;;;6200554;28;20092;-70
2021/06/09 13:54:53;;;;;;;5.90;2.75;;;;;;;;;;6199571;28;20052;-70
2021/06/09 13:57:56;;;;;;;4.85;2.55;;;;;;;;;;6199660;28;20046;-70
2021/06/09 14:00:59;;;;;;;3.45;2.53;;;;;;;;;;6199112;28;20453;-70
2021/06/09 14:04:01;;;;;;;2.83;2.60;;;;;;;;;;6196415;28;20500;-70
2021/06/09 14:07:04;;;;;;;3.65;2.60;;;;;;;;;;6192709;28;20065;-69
2021/06/09 14:10:08;;;;;;;5.50;2.67;;;;;;;;;;6198999;28;20082;-69
2021/06/09 14:13:16;;;;;;;7.03;3.25;;;;;;;;;;6198642;28;20039;-70
2021/06/09 14:16:19;;;;;;;4.13;2.40;;;;;;;;;;6187458;28;20047;-70
2021/06/09 14:19:25;;;;;;;2.60;2.40;;;;;;;;;;6198969;28;20061;-69
2021/06/09 14:22:28;;;;;;;3.67;2.88;;;;;;;;;;6198691;28;20097;-70
2021/06/09 14:25:30;;;;;;;4.70;2.58;;;;;;;;;;6194420;28;20189;-69
2021/06/09 14:28:35;;;;;;;3.05;2.75;;;;;;;;;;6196534;28;20056;-69
2021/06/09 14:31:36;;;;;;;3.85;2.88;;;;;;;;;;6184303;28;20047;-69
2021/06/09 14:34:40;;;;;;;7.55;3.30;;;;;;;;;;6190919;28;20137;-69
2021/06/09 14:37:42;;;;;;;5.28;2.92;;;;;;;;;;6176639;28;20054;-70
2021/06/09 14:40:43;;;;;;;2.63;2.42;;;;;;;;;;6175137;28;20051;-70
2021/06/09 14:43:57;;;;;;;2.97;2.33;;;;;;;;;;6181788;28;20453;-68
2021/06/09 14:47:05;;;;;;;3.47;2.70;;;;;;;;;;6181731;28;20042;-70
2021/06/09 14:50:09;;;;;;;10.50;3.30;;;;;;;;;;6189438;28;20050;-70
2021/06/09 14:53:11;;;;;;;3.47;2.83;;;;;;;;;;6194020;28;20104;-69
2021/06/09 14:56:12;;;;;;;3.42;3.13;;;;;;;;;;6193977;28;20050;-70
2021/06/09 14:59:14;;;;;;;3.03;2.78;;;;;;;;;;6184883;28;20053;-69
2021/06/09 15:02:15;;;;;;;;;;;;;;;;;;6194997;28;20065;-70
2021/06/09 15:05:18;;;;;;;18.13;3.67;;;;;;;;;;6186600;28;19922;-69
2021/06/09 15:08:19;;;;;;;4.45;3.00;;;;;;;;;;6191352;28;20402;-69
2021/06/09 15:11:23;;;;;;;3.90;3.13;;;;;;;;;;6198864;28;20050;-69
2021/06/09 15:14:26;;;;;;;5.43;2.92;;;;;;;;;;6195899;28;20046;-70
2021/06/09 15:17:27;;;;;;;4.30;2.80;;;;;;;;;;6186579;28;20038;-70
2021/06/09 15:20:29;;;;;;;4.82;3.80;;;;;;;;;;6186817;28;20246;-69
2021/06/09 15:23:30;;;;;;;8.07;3.45;;;;;;;;;;6196693;28;20482;-70
2021/06/09 15:26:31;;;;;;;4.68;2.72;;;;;;;;;;6194407;28;20038;-69
2021/06/09 15:29:34;;;;;;;4.40;2.70;;;;;;;;;;6195154;28;20061;-69
2021/06/09 15:32:35;;;;;;;3.42;2.95;;;;;;;;;;6193357;28;20156;-70
2021/06/09 15:35:37;;;;;;;3.58;3.20;;;;;;;;;;6194486;28;20141;-69
2021/06/09 15:38:39;;;;;;;6.72;2.80;;;;;;;;;;6193379;28;20141;-69
2021/06/09 15:41:41;;;;;;;5.10;2.45;;;;;;;;;;6201734;28;20057;-70
2021/06/09 15:44:43;;;;;;;3.95;2.58;;;;;;;;;;6192256;28;20136;-69
2021/06/09 15:47:45;;;;;;;5.05;2.40;;;;;;;;;;6192471;28;20047;-69
2021/06/09 15:50:46;;;;;;;2.60;2.40;;;;;;;;;;6191424;28;20133;-69
2021/06/09 15:53:49;;;;;;;13.75;4.18;;;;;;;;;;6196842;28;20081;-71
2021/06/09 15:56:50;;;;;;;;;;;;;;;;;;6187403;28;20101;-69
2021/06/09 15:59:53;;;;;;;6.32;2.90;;;;;;;;;;6179862;28;19922;-69
2021/06/09 16:02:55;;;;;;;4.35;3.10;;;;;;;;;;6185630;28;20382;-69
2021/06/09 16:05:58;;;;;;;10.60;3.00;;;;;;;;;;6193565;28;20047;-70
2021/06/09 16:09:00;;;;;;;5.82;2.90;;;;;;;;;;6191872;28;20501;-69
2021/06/09 16:12:01;;;;;;;5.57;2.80;;;;;;;;;;6187971;28;20046;-69
2021/06/09 16:15:05;;;;;;;6.55;2.90;;;;;;;;;;6194988;28;20128;-68
2021/06/09 16:18:06;;;;;;;5.05;3.10;;;;;;;;;;6193584;28;20109;-70
2021/06/09 16:21:07;;;;;;;7.40;3.10;;;;;;;;;;6201945;28;20206;-69
2021/06/09 16:24:09;;;;;;;3.85;2.58;;;;;;;;;;6194255;28;20046;-69
2021/06/09 16:27:11;;;;;;;5.38;3.10;;;;;;;;;;6190574;28;20038;-70
2021/06/09 16:30:14;;;;;;;3.10;2.80;;;;;;;;;;6192900;28;20054;-69
2021/06/09 16:33:15;;;;;;;;;;;;;;;;;;6197218;28;20097;-70
2021/06/09 16:36:17;;;;;;;6.75;2.78;;;;;;;;;;6178758;28;19992;-70
2021/06/09 16:39:18;;;;;;;6.10;3.10;;;;;;;;;;6193394;28;20054;-70
2021/06/09 16:42:19;;;;;;;2.95;2.75;;;;;;;;;;6191084;28;20050;-70
2021/06/09 16:45:24;;;;;;;6.72;3.08;;;;;;;;;;6191406;28;20112;-69
2021/06/09 16:48:25;;;;;;;4.60;3.03;;;;;;;;;;6184052;28;20109;-69
2021/06/09 16:51:26;;;;;;;5.10;3.03;;;;;;;;;;6193727;28;20073;-69
2021/06/09 16:54:32;;;;;;;4.90;3.13;;;;;;;;;;6198450;28;20093;-69
2021/06/09 17:00:53;;;;;;;3.10;2.80;;;;;;;;;;6195026;28;20414;-70
2021/06/09 17:03:55;;;;;;;5.03;3.40;;;;;;;;;;6196855;28;20085;-69
2021/06/09 17:06:58;;;;;;;4.38;3.63;;;;;;;;;;6194780;28;20129;-69
2021/06/09 17:09:59;;;;;;;7.38;3.45;;;;;;;;;;6183388;28;20046;-69
2021/06/09 17:13:01;;;;;;;7.95;3.63;;;;;;;;;;6181952;28;20069;-70
2021/06/09 17:16:04;;;;;;;7.18;3.70;;;;;;;;;;6183517;28;20061;-70
2021/06/09 17:19:06;;;;;;;6.70;3.67;;;;;;;;;;6191900;28;20069;-70
2021/06/09 17:22:07;;;;;;;4.28;3.53;;;;;;;;;;6191931;28;20057;-69
2021/06/09 17:25:10;;;;;;;5.18;3.50;;;;;;;;;;6191080;28;20050;-69
2021/06/09 17:28:11;;;;;;;14.18;3.80;;;;;;;;;;6191016;28;20058;-69
2021/06/09 17:31:13;;;;;;;5.00;3.55;;;;;;;;;;6193492;28;20052;-68
2021/06/09 17:34:15;;;;;;;4.05;3.25;;;;;;;;;;6198775;28;20058;-71
2021/06/09 17:37:16;;;;;;;5.65;3.60;;;;;;;;;;6182938;28;20446;-70
2021/06/09 17:40:19;;;;;;;6.28;3.60;;;;;;;;;;6184468;28;20043;-70
2021/06/09 17:43:20;;;;;;;7.70;4.10;;;;;;;;;;6179725;28;20494;-70
2021/06/09 17:46:23;;;;;;;7.13;3.72;;;;;;;;;;6181418;28;20145;-70
2021/06/09 17:49:24;;;;;;;8.05;3.60;;;;;;;;;;6190710;28;20113;-70
2021/06/09 17:52:25;;;;;;;4.40;3.75;;;;;;;;;;6190917;28;20406;-69
2021/06/09 17:55:26;;;;;;;5.35;3.42;;;;;;;;;;6195697;28;20046;-69
2021/06/09 17:58:29;;;;;;;7.88;4.57;;;;;;;;;;6186550;28;20074;-70
2021/06/09 18:01:39;;;;;;;8.38;3.88;;;;;;;;;;6188776;28;20049;-69
2021/06/09 18:04:41;;;;;;;6.72;4.43;;;;;;;;;;6190884;28;20054;-69
2021/06/09 18:07:42;;;;;;;8.10;4.50;;;;;;;;;;6181763;28;20078;-69
2021/06/09 18:10:43;;;;;;;7.57;5.00;;;;;;;;;;6197469;28;20473;-70
2021/06/09 18:13:44;;;;;;;12.80;5.00;;;;;;;;;;6190896;28;20137;-68
2021/06/09 18:16:46;;;;;;;6.78;4.70;;;;;;;;;;6179787;28;20566;-68